sensor_id;sensor_type;location;lat;lon;timestamp;temperature;humidity
3136;DHT22;1578;47.658;9.922;2023-07-20T00:02:00;18.60;53.20
3136;DHT22;1578;47.658;9.922;2023-07-20T00:04:28;18.50;54.30
3136;DHT22;1578;47.658;9.922;2023-07-20T00:06:57;18.50;54.20
3136;DHT22;1578;47.658;9.922;2023-07-20T00:09:22;18.50;53.50
3136;DHT22;1578;47.658;9.922;2023-07-20T00:11:49;18.60;52.90
3136;DHT22;1578;47.658;9.922;2023-07-20T00:14:18;18.50;52.80
3136;DHT22;1578;47.658;9.922;2023-07-20T00:16:49;18.50;52.90
3136;DHT22;1578;47.658;9.922;2023-07-20T00:19:25;18.50;51.40
3136;DHT22;1578;47.658;9.922;2023-07-20T00:21:51;18.70;52.30
3136;DHT22;1578;47.658;9.922;2023-07-20T00:24:18;18.70;48.70
3136;DHT22;1578;47.658;9.922;2023-07-20T00:26:44;18.60;49.60
3136;DHT22;1578;47.658;9.922;2023-07-20T00:29:10;18.60;50.70
3136;DHT22;1578;47.658;9.922;2023-07-20T00:31:36;18.60;50.60
3136;DHT22;1578;47.658;9.922;2023-07-20T00:34:05;18.60;51.30
3136;DHT22;1578;47.658;9.922;2023-07-20T00:36:31;18.40;50.10
3136;DHT22;1578;47.658;9.922;2023-07-20T00:38:57;18.40;50.50
3136;DHT22;1578;47.658;9.922;2023-07-20T00:41:23;18.40;49.30
3136;DHT22;1578;47.658;9.922;2023-07-20T00:43:49;18.50;48.60
3136;DHT22;1578;47.658;9.922;2023-07-20T00:46:23;18.60;50.80
3136;DHT22;1578;47.658;9.922;2023-07-20T00:48:50;18.40;51.10
3136;DHT22;1578;47.658;9.922;2023-07-20T00:51:16;18.30;50.50
3136;DHT22;1578;47.658;9.922;2023-07-20T00:53:42;18.20;50.50
3136;DHT22;1578;47.658;9.922;2023-07-20T00:56:08;18.30;52.20
3136;DHT22;1578;47.658;9.922;2023-07-20T00:58:35;18.30;51.00
3136;DHT22;1578;47.658;9.922;2023-07-20T01:01:01;18.20;49.90
3136;DHT22;1578;47.658;9.922;2023-07-20T01:03:26;18.00;51.60
3136;DHT22;1578;47.658;9.922;2023-07-20T01:06:14;18.00;51.00
3136;DHT22;1578;47.658;9.922;2023-07-20T01:09:11;18.20;48.30
3136;DHT22;1578;47.658;9.922;2023-07-20T01:14:07;18.00;53.80
3136;DHT22;1578;47.658;9.922;2023-07-20T01:16:33;18.00;54.70
3136;DHT22;1578;47.658;9.922;2023-07-20T01:19:06;18.00;52.30
3136;DHT22;1578;47.658;9.922;2023-07-20T01:21:43;18.00;53.80
3136;DHT22;1578;47.658;9.922;2023-07-20T01:24:31;18.00;54.70
3136;DHT22;1578;47.658;9.922;2023-07-20T01:30:24;17.90;52.40
3136;DHT22;1578;47.658;9.922;2023-07-20T01:32:54;17.80;56.10
3136;DHT22;1578;47.658;9.922;2023-07-20T01:35:23;17.90;53.70
3136;DHT22;1578;47.658;9.922;2023-07-20T01:37:52;17.90;54.90
3136;DHT22;1578;47.658;9.922;2023-07-20T01:40:20;17.90;53.10
3136;DHT22;1578;47.658;9.922;2023-07-20T01:42:47;18.10;51.60
3136;DHT22;1578;47.658;9.922;2023-07-20T01:45:13;18.10;53.20
3136;DHT22;1578;47.658;9.922;2023-07-20T01:47:39;18.10;53.30
3136;DHT22;1578;47.658;9.922;2023-07-20T01:50:06;18.00;53.60
3136;DHT22;1578;47.658;9.922;2023-07-20T01:52:32;18.00;53.80
3136;DHT22;1578;47.658;9.922;2023-07-20T01:54:57;18.10;52.30
3136;DHT22;1578;47.658;9.922;2023-07-20T01:57:23;18.10;50.50
3136;DHT22;1578;47.658;9.922;2023-07-20T01:59:49;18.10;51.90
3136;DHT22;1578;47.658;9.922;2023-07-20T02:02:14;18.20;51.20
3136;DHT22;1578;47.658;9.922;2023-07-20T02:04:40;18.20;54.00
3136;DHT22;1578;47.658;9.922;2023-07-20T02:07:05;18.20;54.00
3136;DHT22;1578;47.658;9.922;2023-07-20T02:09:31;18.00;56.10
3136;DHT22;1578;47.658;9.922;2023-07-20T02:11:57;18.00;52.80
3136;DHT22;1578;47.658;9.922;2023-07-20T02:14:22;18.10;53.90
3136;DHT22;1578;47.658;9.922;2023-07-20T02:16:48;18.10;55.40
3136;DHT22;1578;47.658;9.922;2023-07-20T02:19:18;17.90;57.30
3136;DHT22;1578;47.658;9.922;2023-07-20T02:21:44;17.90;56.30
3136;DHT22;1578;47.658;9.922;2023-07-20T02:24:11;17.90;53.10
3136;DHT22;1578;47.658;9.922;2023-07-20T02:26:37;17.80;51.10
3136;DHT22;1578;47.658;9.922;2023-07-20T02:29:03;18.00;49.60
3136;DHT22;1578;47.658;9.922;2023-07-20T02:31:30;17.90;52.20
3136;DHT22;1578;47.658;9.922;2023-07-20T02:33:56;18.00;51.80
3136;DHT22;1578;47.658;9.922;2023-07-20T02:36:22;18.00;53.80
3136;DHT22;1578;47.658;9.922;2023-07-20T02:38:47;17.90;54.00
3136;DHT22;1578;47.658;9.922;2023-07-20T02:41:13;17.90;53.80
3136;DHT22;1578;47.658;9.922;2023-07-20T02:43:42;18.00;53.60
3136;DHT22;1578;47.658;9.922;2023-07-20T02:46:08;18.00;55.10
3136;DHT22;1578;47.658;9.922;2023-07-20T02:48:33;18.00;56.00
3136;DHT22;1578;47.658;9.922;2023-07-20T02:50:59;18.00;55.60
3136;DHT22;1578;47.658;9.922;2023-07-20T02:53:25;18.00;57.00
3136;DHT22;1578;47.658;9.922;2023-07-20T02:55:50;17.90;53.70
3136;DHT22;1578;47.658;9.922;2023-07-20T02:58:16;17.90;53.70
3136;DHT22;1578;47.658;9.922;2023-07-20T03:00:43;18.00;52.60
3136;DHT22;1578;47.658;9.922;2023-07-20T03:03:08;18.00;51.50
3136;DHT22;1578;47.658;9.922;2023-07-20T03:05:40;17.90;50.50
3136;DHT22;1578;47.658;9.922;2023-07-20T03:08:06;17.90;50.10
3136;DHT22;1578;47.658;9.922;2023-07-20T03:10:32;18.10;47.60
3136;DHT22;1578;47.658;9.922;2023-07-20T03:12:58;18.10;51.90
3136;DHT22;1578;47.658;9.922;2023-07-20T03:15:24;18.00;55.30
3136;DHT22;1578;47.658;9.922;2023-07-20T03:17:50;17.90;54.70
3136;DHT22;1578;47.658;9.922;2023-07-20T03:20:17;17.60;54.00
3136;DHT22;1578;47.658;9.922;2023-07-20T03:22:42;17.70;54.10
3136;DHT22;1578;47.658;9.922;2023-07-20T03:25:08;17.80;48.80
3136;DHT22;1578;47.658;9.922;2023-07-20T03:27:34;17.80;51.20
3136;DHT22;1578;47.658;9.922;2023-07-20T03:30:00;17.80;50.30
3136;DHT22;1578;47.658;9.922;2023-07-20T03:32:25;17.70;53.50
3136;DHT22;1578;47.658;9.922;2023-07-20T03:34:51;17.50;54.50
3136;DHT22;1578;47.658;9.922;2023-07-20T03:37:16;17.50;52.60
3136;DHT22;1578;47.658;9.922;2023-07-20T03:39:42;17.50;51.40
3136;DHT22;1578;47.658;9.922;2023-07-20T03:42:08;17.60;52.00
3136;DHT22;1578;47.658;9.922;2023-07-20T03:44:33;17.60;53.50
3136;DHT22;1578;47.658;9.922;2023-07-20T03:46:59;17.60;54.20
3136;DHT22;1578;47.658;9.922;2023-07-20T03:49:24;17.50;56.40
3136;DHT22;1578;47.658;9.922;2023-07-20T03:51:50;17.40;59.90
3136;DHT22;1578;47.658;9.922;2023-07-20T03:54:16;17.20;61.40
3136;DHT22;1578;47.658;9.922;2023-07-20T03:56:41;17.20;61.00
3136;DHT22;1578;47.658;9.922;2023-07-20T03:59:07;17.40;59.00
3136;DHT22;1578;47.658;9.922;2023-07-20T04:01:33;17.60;56.20
3136;DHT22;1578;47.658;9.922;2023-07-20T04:04:06;17.60;55.60
3136;DHT22;1578;47.658;9.922;2023-07-20T04:06:33;17.70;56.40
3136;DHT22;1578;47.658;9.922;2023-07-20T04:08:59;17.50;58.00
3136;DHT22;1578;47.658;9.922;2023-07-20T04:11:24;17.50;58.00
3136;DHT22;1578;47.658;9.922;2023-07-20T04:13:50;17.50;58.00
3136;DHT22;1578;47.658;9.922;2023-07-20T04:16:16;17.60;59.00
3136;DHT22;1578;47.658;9.922;2023-07-20T04:18:41;17.60;58.10
3136;DHT22;1578;47.658;9.922;2023-07-20T04:21:10;17.60;57.80
3136;DHT22;1578;47.658;9.922;2023-07-20T04:23:36;17.50;58.00
3136;DHT22;1578;47.658;9.922;2023-07-20T04:26:02;17.50;60.30
3136;DHT22;1578;47.658;9.922;2023-07-20T04:28:28;17.50;60.00
3136;DHT22;1578;47.658;9.922;2023-07-20T04:30:53;17.30;64.70
3136;DHT22;1578;47.658;9.922;2023-07-20T04:33:19;17.30;67.20
3136;DHT22;1578;47.658;9.922;2023-07-20T04:35:50;17.40;67.00
3136;DHT22;1578;47.658;9.922;2023-07-20T04:38:17;17.60;62.80
3136;DHT22;1578;47.658;9.922;2023-07-20T04:40:47;17.60;62.80
3136;DHT22;1578;47.658;9.922;2023-07-20T04:43:14;17.50;63.60
3136;DHT22;1578;47.658;9.922;2023-07-20T04:45:41;17.60;63.50
3136;DHT22;1578;47.658;9.922;2023-07-20T04:48:13;17.60;62.80
3136;DHT22;1578;47.658;9.922;2023-07-20T04:50:44;17.60;63.90
3136;DHT22;1578;47.658;9.922;2023-07-20T04:53:11;17.70;61.90
3136;DHT22;1578;47.658;9.922;2023-07-20T04:55:38;17.80;60.00
3136;DHT22;1578;47.658;9.922;2023-07-20T04:58:04;17.80;61.20
3136;DHT22;1578;47.658;9.922;2023-07-20T05:00:31;17.80;62.50
3136;DHT22;1578;47.658;9.922;2023-07-20T05:02:57;17.80;64.70
3136;DHT22;1578;47.658;9.922;2023-07-20T05:05:23;17.90;63.40
3136;DHT22;1578;47.658;9.922;2023-07-20T05:07:51;17.90;62.00
3136;DHT22;1578;47.658;9.922;2023-07-20T05:10:17;17.90;62.80
3136;DHT22;1578;47.658;9.922;2023-07-20T05:12:43;18.00;62.20
3136;DHT22;1578;47.658;9.922;2023-07-20T05:15:09;18.10;60.10
3136;DHT22;1578;47.658;9.922;2023-07-20T05:17:35;18.10;59.80
3136;DHT22;1578;47.658;9.922;2023-07-20T05:20:01;18.10;61.20
3136;DHT22;1578;47.658;9.922;2023-07-20T05:22:26;18.30;59.40
3136;DHT22;1578;47.658;9.922;2023-07-20T05:24:52;18.30;58.40
3136;DHT22;1578;47.658;9.922;2023-07-20T05:27:18;18.50;57.10
3136;DHT22;1578;47.658;9.922;2023-07-20T05:29:46;18.50;56.00
3136;DHT22;1578;47.658;9.922;2023-07-20T05:32:13;18.50;57.20
3136;DHT22;1578;47.658;9.922;2023-07-20T05:34:39;18.40;56.00
3136;DHT22;1578;47.658;9.922;2023-07-20T05:37:05;18.40;58.80
3136;DHT22;1578;47.658;9.922;2023-07-20T05:39:32;18.40;59.40
3136;DHT22;1578;47.658;9.922;2023-07-20T05:41:58;18.40;59.30
3136;DHT22;1578;47.658;9.922;2023-07-20T05:44:24;18.50;60.60
3136;DHT22;1578;47.658;9.922;2023-07-20T05:46:50;18.80;59.20
3136;DHT22;1578;47.658;9.922;2023-07-20T05:49:15;19.10;56.40
3136;DHT22;1578;47.658;9.922;2023-07-20T05:51:41;19.20;51.10
3136;DHT22;1578;47.658;9.922;2023-07-20T05:54:07;19.30;51.10
3136;DHT22;1578;47.658;9.922;2023-07-20T05:56:33;19.40;46.50
3136;DHT22;1578;47.658;9.922;2023-07-20T05:58:59;19.60;45.80
3136;DHT22;1578;47.658;9.922;2023-07-20T06:01:24;19.80;46.70
3136;DHT22;1578;47.658;9.922;2023-07-20T06:03:53;20.00;37.70
3136;DHT22;1578;47.658;9.922;2023-07-20T06:06:19;20.10;38.60
3136;DHT22;1578;47.658;9.922;2023-07-20T06:08:46;20.20;38.60
3136;DHT22;1578;47.658;9.922;2023-07-20T06:11:11;20.40;37.70
3136;DHT22;1578;47.658;9.922;2023-07-20T06:13:37;20.60;30.00
3136;DHT22;1578;47.658;9.922;2023-07-20T06:16:03;20.90;31.50
3136;DHT22;1578;47.658;9.922;2023-07-20T06:18:29;20.90;25.30
3136;DHT22;1578;47.658;9.922;2023-07-20T06:20:56;20.80;27.60
3136;DHT22;1578;47.658;9.922;2023-07-20T06:23:22;20.90;28.40
3136;DHT22;1578;47.658;9.922;2023-07-20T06:25:48;21.10;27.10
3136;DHT22;1578;47.658;9.922;2023-07-20T06:28:14;21.10;25.40
3136;DHT22;1578;47.658;9.922;2023-07-20T06:30:40;21.10;23.20
3136;DHT22;1578;47.658;9.922;2023-07-20T06:33:06;21.00;20.10
3136;DHT22;1578;47.658;9.922;2023-07-20T06:35:33;20.90;20.60
3136;DHT22;1578;47.658;9.922;2023-07-20T06:37:59;20.80;20.90
3136;DHT22;1578;47.658;9.922;2023-07-20T06:40:26;20.70;23.10
3136;DHT22;1578;47.658;9.922;2023-07-20T06:42:51;20.80;23.00
3136;DHT22;1578;47.658;9.922;2023-07-20T06:45:17;20.90;22.50
3136;DHT22;1578;47.658;9.922;2023-07-20T06:47:43;21.10;21.50
3136;DHT22;1578;47.658;9.922;2023-07-20T06:50:09;21.40;19.10
3136;DHT22;1578;47.658;9.922;2023-07-20T06:52:35;21.60;17.10
3136;DHT22;1578;47.658;9.922;2023-07-20T06:55:01;21.70;17.60
3136;DHT22;1578;47.658;9.922;2023-07-20T06:57:27;21.90;12.40
3136;DHT22;1578;47.658;9.922;2023-07-20T06:59:53;21.90;13.10
3136;DHT22;1578;47.658;9.922;2023-07-20T07:02:19;21.90;10.80
3136;DHT22;1578;47.658;9.922;2023-07-20T07:04:45;22.00;11.00
3136;DHT22;1578;47.658;9.922;2023-07-20T07:07:14;21.90;13.60
3136;DHT22;1578;47.658;9.922;2023-07-20T07:09:40;21.50;9.20
3136;DHT22;1578;47.658;9.922;2023-07-20T07:12:06;21.40;10.40
3136;DHT22;1578;47.658;9.922;2023-07-20T07:14:32;21.30;11.40
3136;DHT22;1578;47.658;9.922;2023-07-20T07:17:00;21.30;7.90
3136;DHT22;1578;47.658;9.922;2023-07-20T07:19:26;21.30;8.10
3136;DHT22;1578;47.658;9.922;2023-07-20T07:21:51;21.50;8.40
3136;DHT22;1578;47.658;9.922;2023-07-20T07:24:17;21.60;11.40
3136;DHT22;1578;47.658;9.922;2023-07-20T07:26:43;21.60;9.80
3136;DHT22;1578;47.658;9.922;2023-07-20T07:29:09;21.80;10.60
3136;DHT22;1578;47.658;9.922;2023-07-20T07:31:35;21.70;9.30
3136;DHT22;1578;47.658;9.922;2023-07-20T07:34:04;21.50;10.40
3136;DHT22;1578;47.658;9.922;2023-07-20T07:36:31;21.20;11.50
3136;DHT22;1578;47.658;9.922;2023-07-20T07:38:56;21.10;11.20
3136;DHT22;1578;47.658;9.922;2023-07-20T07:41:22;21.10;11.00
3136;DHT22;1578;47.658;9.922;2023-07-20T07:43:48;21.20;10.10
3136;DHT22;1578;47.658;9.922;2023-07-20T07:46:14;21.20;10.40
3136;DHT22;1578;47.658;9.922;2023-07-20T07:48:40;21.10;8.80
3136;DHT22;1578;47.658;9.922;2023-07-20T07:51:05;21.10;13.10
3136;DHT22;1578;47.658;9.922;2023-07-20T07:53:31;21.40;12.70
3136;DHT22;1578;47.658;9.922;2023-07-20T07:55:58;21.60;12.90
3136;DHT22;1578;47.658;9.922;2023-07-20T07:58:24;22.00;7.80
3136;DHT22;1578;47.658;9.922;2023-07-20T08:00:49;22.30;8.00
3136;DHT22;1578;47.658;9.922;2023-07-20T08:03:15;22.40;8.20
3136;DHT22;1578;47.658;9.922;2023-07-20T08:05:41;22.10;6.80
3136;DHT22;1578;47.658;9.922;2023-07-20T08:08:06;22.00;10.60
3136;DHT22;1578;47.658;9.922;2023-07-20T08:10:34;22.20;8.00
3136;DHT22;1578;47.658;9.922;2023-07-20T08:12:59;22.40;8.20
3136;DHT22;1578;47.658;9.922;2023-07-20T08:15:25;21.90;8.00
3136;DHT22;1578;47.658;9.922;2023-07-20T08:17:50;22.00;9.20
3136;DHT22;1578;47.658;9.922;2023-07-20T08:20:17;21.80;7.70
3136;DHT22;1578;47.658;9.922;2023-07-20T08:22:43;21.70;9.80
3136;DHT22;1578;47.658;9.922;2023-07-20T08:25:11;21.90;11.20
3136;DHT22;1578;47.658;9.922;2023-07-20T08:27:37;21.90;7.90
3136;DHT22;1578;47.658;9.922;2023-07-20T08:30:03;22.00;6.90
3136;DHT22;1578;47.658;9.922;2023-07-20T08:32:33;21.70;10.40
3136;DHT22;1578;47.658;9.922;2023-07-20T08:34:58;21.60;11.30
3136;DHT22;1578;47.658;9.922;2023-07-20T08:37:24;21.40;10.50
3136;DHT22;1578;47.658;9.922;2023-07-20T08:39:50;21.50;11.90
3136;DHT22;1578;47.658;9.922;2023-07-20T08:42:16;21.80;12.60
3136;DHT22;1578;47.658;9.922;2023-07-20T08:44:42;22.00;10.80
3136;DHT22;1578;47.658;9.922;2023-07-20T08:47:10;22.30;11.30
3136;DHT22;1578;47.658;9.922;2023-07-20T08:49:39;22.60;10.50
3136;DHT22;1578;47.658;9.922;2023-07-20T08:52:05;22.80;8.70
3136;DHT22;1578;47.658;9.922;2023-07-20T08:54:31;23.00;5.50
3136;DHT22;1578;47.658;9.922;2023-07-20T08:57:04;23.10;5.70
3136;DHT22;1578;47.658;9.922;2023-07-20T08:59:31;22.90;4.90
3136;DHT22;1578;47.658;9.922;2023-07-20T09:01:58;22.40;9.00
3136;DHT22;1578;47.658;9.922;2023-07-20T09:04:24;22.20;11.10
3136;DHT22;1578;47.658;9.922;2023-07-20T09:06:50;21.70;9.20
3136;DHT22;1578;47.658;9.922;2023-07-20T09:09:16;21.40;10.40
3136;DHT22;1578;47.658;9.922;2023-07-20T09:11:42;21.60;11.10
3136;DHT22;1578;47.658;9.922;2023-07-20T09:14:09;21.60;10.60
3136;DHT22;1578;47.658;9.922;2023-07-20T09:16:55;21.70;12.50
3136;DHT22;1578;47.658;9.922;2023-07-20T09:19:21;22.20;10.80
3136;DHT22;1578;47.658;9.922;2023-07-20T09:21:51;22.70;12.10
3136;DHT22;1578;47.658;9.922;2023-07-20T09:24:20;23.10;10.10
3136;DHT22;1578;47.658;9.922;2023-07-20T09:26:47;23.30;12.00
3136;DHT22;1578;47.658;9.922;2023-07-20T09:29:14;23.60;5.90
3136;DHT22;1578;47.658;9.922;2023-07-20T09:31:39;23.90;3.90
3136;DHT22;1578;47.658;9.922;2023-07-20T09:34:06;24.20;3.40
3136;DHT22;1578;47.658;9.922;2023-07-20T09:36:36;23.90;3.00
3136;DHT22;1578;47.658;9.922;2023-07-20T09:39:04;22.70;8.30
3136;DHT22;1578;47.658;9.922;2023-07-20T09:41:39;22.30;6.40
3136;DHT22;1578;47.658;9.922;2023-07-20T09:44:07;22.20;7.60
3136;DHT22;1578;47.658;9.922;2023-07-20T09:46:45;22.10;8.70
3136;DHT22;1578;47.658;9.922;2023-07-20T09:49:11;22.00;9.90
3136;DHT22;1578;47.658;9.922;2023-07-20T09:51:37;21.90;11.30
3136;DHT22;1578;47.658;9.922;2023-07-20T09:54:04;21.90;7.80
3136;DHT22;1578;47.658;9.922;2023-07-20T09:56:30;22.30;10.00
3136;DHT22;1578;47.658;9.922;2023-07-20T09:58:56;22.60;5.80
3136;DHT22;1578;47.658;9.922;2023-07-20T10:01:24;22.90;7.60
3136;DHT22;1578;47.658;9.922;2023-07-20T10:03:54;23.70;9.60
3136;DHT22;1578;47.658;9.922;2023-07-20T10:06:23;24.10;6.30
3136;DHT22;1578;47.658;9.922;2023-07-20T10:08:52;23.60;3.80
3136;DHT22;1578;47.658;9.922;2023-07-20T10:11:18;23.30;5.10
3136;DHT22;1578;47.658;9.922;2023-07-20T10:13:50;23.10;7.00
3136;DHT22;1578;47.658;9.922;2023-07-20T10:16:34;23.50;5.10
3136;DHT22;1578;47.658;9.922;2023-07-20T10:19:22;24.00;5.20
3136;DHT22;1578;47.658;9.922;2023-07-20T10:21:57;24.70;4.00
3136;DHT22;1578;47.658;9.922;2023-07-20T10:24:26;24.50;5.40
3136;DHT22;1578;47.658;9.922;2023-07-20T10:26:55;24.70;6.90
3136;DHT22;1578;47.658;9.922;2023-07-20T10:29:21;24.40;4.30
3136;DHT22;1578;47.658;9.922;2023-07-20T10:31:48;24.10;3.10
3136;DHT22;1578;47.658;9.922;2023-07-20T10:34:15;23.50;7.40
3136;DHT22;1578;47.658;9.922;2023-07-20T10:36:45;23.80;7.20
3136;DHT22;1578;47.658;9.922;2023-07-20T10:39:31;24.30;6.20
3136;DHT22;1578;47.658;9.922;2023-07-20T10:42:01;24.60;7.70
3136;DHT22;1578;47.658;9.922;2023-07-20T10:44:29;24.20;3.50
3136;DHT22;1578;47.658;9.922;2023-07-20T10:47:03;23.80;3.10
3136;DHT22;1578;47.658;9.922;2023-07-20T10:49:33;23.80;4.40
3136;DHT22;1578;47.658;9.922;2023-07-20T10:52:03;23.50;6.70
3136;DHT22;1578;47.658;9.922;2023-07-20T10:56:57;23.90;7.30
3136;DHT22;1578;47.658;9.922;2023-07-20T11:01:50;23.50;5.70
3136;DHT22;1578;47.658;9.922;2023-07-20T11:04:16;23.20;8.20
3136;DHT22;1578;47.658;9.922;2023-07-20T11:06:45;23.50;6.90
3136;DHT22;1578;47.658;9.922;2023-07-20T11:09:14;23.70;7.50
3136;DHT22;1578;47.658;9.922;2023-07-20T11:11:41;23.60;7.40
3136;DHT22;1578;47.658;9.922;2023-07-20T11:14:24;23.70;4.90
3136;DHT22;1578;47.658;9.922;2023-07-20T11:16:51;23.70;2.10
3136;DHT22;1578;47.658;9.922;2023-07-20T11:19:22;24.10;6.10
3136;DHT22;1578;47.658;9.922;2023-07-20T11:21:53;24.30;3.90
3136;DHT22;1578;47.658;9.922;2023-07-20T11:24:19;24.20;2.20
3136;DHT22;1578;47.658;9.922;2023-07-20T11:26:49;24.50;6.00
3136;DHT22;1578;47.658;9.922;2023-07-20T11:29:19;24.90;2.30
3136;DHT22;1578;47.658;9.922;2023-07-20T11:31:46;25.10;1.80
3136;DHT22;1578;47.658;9.922;2023-07-20T11:34:14;24.80;2.20
3136;DHT22;1578;47.658;9.922;2023-07-20T11:36:41;24.20;10.80
3136;DHT22;1578;47.658;9.922;2023-07-20T11:39:11;24.00;5.00
3136;DHT22;1578;47.658;9.922;2023-07-20T11:41:38;23.90;4.30
3136;DHT22;1578;47.658;9.922;2023-07-20T11:44:05;24.40;8.50
3136;DHT22;1578;47.658;9.922;2023-07-20T11:46:42;25.30;2.80
3136;DHT22;1578;47.658;9.922;2023-07-20T11:49:08;25.20;1.10
3136;DHT22;1578;47.658;9.922;2023-07-20T11:51:34;25.40;3.90
3136;DHT22;1578;47.658;9.922;2023-07-20T11:54:01;25.50;1.40
3136;DHT22;1578;47.658;9.922;2023-07-20T11:56:28;25.10;4.70
3136;DHT22;1578;47.658;9.922;2023-07-20T11:58:58;25.40;3.80
3136;DHT22;1578;47.658;9.922;2023-07-20T12:01:25;25.50;2.60
3136;DHT22;1578;47.658;9.922;2023-07-20T12:03:59;25.50;2.10
3136;DHT22;1578;47.658;9.922;2023-07-20T12:06:27;25.40;2.40
3136;DHT22;1578;47.658;9.922;2023-07-20T12:08:56;26.30;1.00
3136;DHT22;1578;47.658;9.922;2023-07-20T12:11:38;26.40;1.00
3136;DHT22;1578;47.658;9.922;2023-07-20T12:14:07;27.80;1.00
3136;DHT22;1578;47.658;9.922;2023-07-20T12:16:34;28.30;1.00
3136;DHT22;1578;47.658;9.922;2023-07-20T12:19:05;27.90;1.00
3136;DHT22;1578;47.658;9.922;2023-07-20T12:21:31;26.80;1.00
3136;DHT22;1578;47.658;9.922;2023-07-20T12:23:58;25.70;1.00
3136;DHT22;1578;47.658;9.922;2023-07-20T12:26:25;24.70;3.20
3136;DHT22;1578;47.658;9.922;2023-07-20T12:28:51;24.90;4.00
3136;DHT22;1578;47.658;9.922;2023-07-20T12:31:17;25.50;4.50
3136;DHT22;1578;47.658;9.922;2023-07-20T12:33:43;26.40;1.90
3136;DHT22;1578;47.658;9.922;2023-07-20T12:36:10;27.10;1.00
3136;DHT22;1578;47.658;9.922;2023-07-20T12:38:36;26.30;3.50
3136;DHT22;1578;47.658;9.922;2023-07-20T12:41:02;26.80;3.20
3136;DHT22;1578;47.658;9.922;2023-07-20T12:43:29;27.20;1.00
3136;DHT22;1578;47.658;9.922;2023-07-20T12:45:55;27.10;1.00
3136;DHT22;1578;47.658;9.922;2023-07-20T12:48:21;26.40;1.00
3136;DHT22;1578;47.658;9.922;2023-07-20T12:50:47;26.00;1.00
3136;DHT22;1578;47.658;9.922;2023-07-20T12:53:13;26.20;1.00
3136;DHT22;1578;47.658;9.922;2023-07-20T12:55:39;25.80;1.00
3136;DHT22;1578;47.658;9.922;2023-07-20T12:58:07;26.90;1.00
3136;DHT22;1578;47.658;9.922;2023-07-20T13:00:32;27.60;1.00
3136;DHT22;1578;47.658;9.922;2023-07-20T13:02:58;27.60;1.00
3136;DHT22;1578;47.658;9.922;2023-07-20T13:05:24;26.80;1.00
3136;DHT22;1578;47.658;9.922;2023-07-20T13:07:50;26.70;1.00
3136;DHT22;1578;47.658;9.922;2023-07-20T13:10:15;27.00;1.00
3136;DHT22;1578;47.658;9.922;2023-07-20T13:12:41;26.70;1.00
3136;DHT22;1578;47.658;9.922;2023-07-20T13:15:08;27.40;1.00
3136;DHT22;1578;47.658;9.922;2023-07-20T13:17:35;26.70;1.00
3136;DHT22;1578;47.658;9.922;2023-07-20T13:20:05;26.80;1.00
3136;DHT22;1578;47.658;9.922;2023-07-20T13:22:32;26.30;1.00
3136;DHT22;1578;47.658;9.922;2023-07-20T13:24:58;26.40;1.00
3136;DHT22;1578;47.658;9.922;2023-07-20T13:27:24;25.90;1.00
3136;DHT22;1578;47.658;9.922;2023-07-20T13:29:51;25.70;1.00
3136;DHT22;1578;47.658;9.922;2023-07-20T13:32:17;25.80;1.00
3136;DHT22;1578;47.658;9.922;2023-07-20T13:34:46;25.90;1.00
3136;DHT22;1578;47.658;9.922;2023-07-20T13:37:12;26.00;1.00
3136;DHT22;1578;47.658;9.922;2023-07-20T13:39:38;26.60;1.00
3136;DHT22;1578;47.658;9.922;2023-07-20T13:42:05;26.70;1.00
3136;DHT22;1578;47.658;9.922;2023-07-20T13:44:31;26.50;1.00
3136;DHT22;1578;47.658;9.922;2023-07-20T13:46:57;26.80;1.00
3136;DHT22;1578;47.658;9.922;2023-07-20T13:49:22;27.10;1.00
3136;DHT22;1578;47.658;9.922;2023-07-20T13:51:48;26.90;1.00
3136;DHT22;1578;47.658;9.922;2023-07-20T13:54:19;26.40;1.00
3136;DHT22;1578;47.658;9.922;2023-07-20T13:56:45;26.40;1.00
3136;DHT22;1578;47.658;9.922;2023-07-20T13:59:10;25.80;1.00
3136;DHT22;1578;47.658;9.922;2023-07-20T14:01:36;25.60;1.50
3136;DHT22;1578;47.658;9.922;2023-07-20T14:04:02;25.00;1.00
3136;DHT22;1578;47.658;9.922;2023-07-20T14:06:30;25.30;1.00
3136;DHT22;1578;47.658;9.922;2023-07-20T14:08:56;25.20;1.00
3136;DHT22;1578;47.658;9.922;2023-07-20T14:11:22;25.50;1.00
3136;DHT22;1578;47.658;9.922;2023-07-20T14:13:51;25.40;1.00
3136;DHT22;1578;47.658;9.922;2023-07-20T14:16:22;25.20;1.00
3136;DHT22;1578;47.658;9.922;2023-07-20T14:18:48;25.50;1.00
3136;DHT22;1578;47.658;9.922;2023-07-20T14:21:15;26.20;1.40
3136;DHT22;1578;47.658;9.922;2023-07-20T14:23:41;26.50;1.00
3136;DHT22;1578;47.658;9.922;2023-07-20T14:26:07;26.30;1.00
3136;DHT22;1578;47.658;9.922;2023-07-20T14:28:34;26.10;1.00
3136;DHT22;1578;47.658;9.922;2023-07-20T14:31:00;26.60;1.00
3136;DHT22;1578;47.658;9.922;2023-07-20T14:33:26;26.60;1.00
3136;DHT22;1578;47.658;9.922;2023-07-20T14:35:52;25.90;1.00
3136;DHT22;1578;47.658;9.922;2023-07-20T14:38:18;26.00;1.00
3136;DHT22;1578;47.658;9.922;2023-07-20T14:40:43;26.00;1.00
3136;DHT22;1578;47.658;9.922;2023-07-20T14:43:10;26.00;1.00
3136;DHT22;1578;47.658;9.922;2023-07-20T14:45:36;26.10;1.00
3136;DHT22;1578;47.658;9.922;2023-07-20T14:48:03;26.00;1.00
3136;DHT22;1578;47.658;9.922;2023-07-20T14:50:29;26.00;1.00
3136;DHT22;1578;47.658;9.922;2023-07-20T14:52:55;25.90;1.00
3136;DHT22;1578;47.658;9.922;2023-07-20T14:55:21;25.80;1.00
3136;DHT22;1578;47.658;9.922;2023-07-20T14:57:48;26.10;1.00
3136;DHT22;1578;47.658;9.922;2023-07-20T15:00:14;26.20;1.00
3136;DHT22;1578;47.658;9.922;2023-07-20T15:02:40;26.30;1.00
3136;DHT22;1578;47.658;9.922;2023-07-20T15:05:07;26.60;1.00
3136;DHT22;1578;47.658;9.922;2023-07-20T15:07:33;26.50;1.00
3136;DHT22;1578;47.658;9.922;2023-07-20T15:10:00;26.40;1.00
3136;DHT22;1578;47.658;9.922;2023-07-20T15:12:26;26.50;1.00
3136;DHT22;1578;47.658;9.922;2023-07-20T15:15:10;26.70;1.00
3136;DHT22;1578;47.658;9.922;2023-07-20T15:17:37;26.90;1.00
3136;DHT22;1578;47.658;9.922;2023-07-20T15:20:04;26.90;1.00
3136;DHT22;1578;47.658;9.922;2023-07-20T15:22:30;26.60;1.00
3136;DHT22;1578;47.658;9.922;2023-07-20T15:24:56;26.40;1.00
3136;DHT22;1578;47.658;9.922;2023-07-20T15:27:22;26.30;1.00
3136;DHT22;1578;47.658;9.922;2023-07-20T15:29:51;26.00;1.00
3136;DHT22;1578;47.658;9.922;2023-07-20T15:32:18;25.90;1.00
3136;DHT22;1578;47.658;9.922;2023-07-20T15:34:44;25.70;1.00
3136;DHT22;1578;47.658;9.922;2023-07-20T15:37:10;25.40;1.00
3136;DHT22;1578;47.658;9.922;2023-07-20T15:39:37;25.40;1.00
3136;DHT22;1578;47.658;9.922;2023-07-20T15:42:03;25.30;1.00
3136;DHT22;1578;47.658;9.922;2023-07-20T15:44:29;25.50;1.00
3136;DHT22;1578;47.658;9.922;2023-07-20T15:46:55;25.20;1.00
3136;DHT22;1578;47.658;9.922;2023-07-20T15:49:21;25.50;1.00
3136;DHT22;1578;47.658;9.922;2023-07-20T15:51:48;25.90;1.00
3136;DHT22;1578;47.658;9.922;2023-07-20T15:54:14;26.30;1.00
3136;DHT22;1578;47.658;9.922;2023-07-20T15:56:41;26.40;1.00
3136;DHT22;1578;47.658;9.922;2023-07-20T15:59:13;26.40;1.00
3136;DHT22;1578;47.658;9.922;2023-07-20T16:01:39;26.80;1.00
3136;DHT22;1578;47.658;9.922;2023-07-20T16:04:06;27.10;1.00
3136;DHT22;1578;47.658;9.922;2023-07-20T16:06:32;27.20;1.00
3136;DHT22;1578;47.658;9.922;2023-07-20T16:08:58;27.40;1.00
3136;DHT22;1578;47.658;9.922;2023-07-20T16:11:24;27.70;1.00
3136;DHT22;1578;47.658;9.922;2023-07-20T16:13:50;27.60;1.00
3136;DHT22;1578;47.658;9.922;2023-07-20T16:16:17;26.90;1.00
3136;DHT22;1578;47.658;9.922;2023-07-20T16:18:43;26.50;1.00
3136;DHT22;1578;47.658;9.922;2023-07-20T16:21:09;26.30;1.00